Retsil, Washington
Current Conditions -  °F | °C
As of 8:55 PM on Monday 20 Oct 2014 (Local Time) from KPWT Reporting Station
Scattered Clouds Scattered Clouds  
Wind Chill: 11°   Ceiling: Unl
Heat Index: 11°   Visibility: 10mi
Dew Point: 11°   Wind: 5mph
Humidity: 100%   Direction: 200°SSW
Pressure: 29.79"   Gusts: NA
Location:  47.53°N, 122.59°W
Report Text: KPWT 210355Z AUTO 20004KT 10SM FEW020 FEW041 SCT055 11/11 A2979 RMK AO1
Loading
Personal Weather Stations






























Interactive Weather Map
Tropical Storm Tracking
New forecast layout! Learn more

10-Day Weather Forecast

Advertisements
Track Severe Weather on mobile